createdAt,value
2022-11-30T00:01:22.275Z,100526.50
2022-11-30T00:03:54.073Z,100523.75
2022-11-30T00:06:24.417Z,100519.06
2022-11-30T00:08:56.866Z,100520.69
2022-11-30T00:11:25.185Z,100513.19
2022-11-30T00:13:53.320Z,100525.44
2022-11-30T00:16:20.865Z,100516.56
2022-11-30T00:18:48.511Z,100517.25
2022-11-30T00:21:16.440Z,100521.78
2022-11-30T00:23:45.340Z,100521.63
2022-11-30T00:26:15.710Z,100514.50
2022-11-30T00:28:45.321Z,100517.75
2022-11-30T00:31:14.847Z,100512.13
2022-11-30T00:33:42.835Z,100509.59
2022-11-30T00:36:16.129Z,100507.47
2022-11-30T00:38:44.808Z,100519.06
2022-11-30T00:41:12.874Z,100518.19
2022-11-30T00:43:40.421Z,100527.19
2022-11-30T00:46:10.943Z,100517.34
2022-11-30T00:48:39.342Z,100514.81
2022-11-30T00:51:08.227Z,100513.41
2022-11-30T00:53:36.638Z,100517.72
2022-11-30T00:56:04.452Z,100527.38
2022-11-30T00:58:32.175Z,100522.50
2022-11-30T01:01:00.105Z,100521.63
2022-11-30T01:03:27.779Z,100524.53
2022-11-30T01:05:55.470Z,100529.13
2022-11-30T01:08:25.620Z,100530.75
2022-11-30T01:10:54.710Z,100525.19
2022-11-30T01:13:22.410Z,100534.31
2022-11-30T01:15:50.423Z,100528.19
2022-11-30T01:18:17.866Z,100532.72
2022-11-30T01:20:45.380Z,100526.31
2022-11-30T01:23:13.777Z,100528.50
2022-11-30T01:25:41.306Z,100531.97
2022-11-30T01:28:10.283Z,100527.72
2022-11-30T01:30:38.269Z,100527.66
2022-11-30T01:33:06.109Z,100515.63
2022-11-30T01:35:33.720Z,100509.75
2022-11-30T01:38:01.877Z,100511.94
2022-11-30T01:40:29.309Z,100506.78
2022-11-30T01:42:56.832Z,100511.78
2022-11-30T01:45:24.953Z,100512.34
2022-11-30T01:47:54.375Z,100505.56
2022-11-30T01:50:31.199Z,100508.84
2022-11-30T01:52:59.223Z,100509.19
2022-11-30T01:55:34.431Z,100506.66
2022-11-30T01:58:09.680Z,100511.94
2022-11-30T02:00:37.435Z,100513.34
2022-11-30T02:03:15.154Z,100510.03
2022-11-30T02:05:43.091Z,100513.00
2022-11-30T02:08:11.636Z,100507.13
2022-11-30T02:10:42.393Z,100509.00
2022-11-30T02:13:35.011Z,100498.72
2022-11-30T02:16:05.986Z,100494.66
2022-11-30T02:18:39.558Z,100504.53
2022-11-30T02:21:26.376Z,100514.81
2022-11-30T02:24:09.057Z,100515.37
2022-11-30T02:26:48.711Z,100507.38
2022-11-30T02:29:21.496Z,100502.47
2022-11-30T02:32:04.203Z,100493.06
2022-11-30T02:34:33.458Z,100496.22
2022-11-30T02:37:02.373Z,100489.75
2022-11-30T02:39:29.932Z,100497.53
2022-11-30T02:41:57.292Z,100490.97
2022-11-30T02:44:25.466Z,100492.25
2022-11-30T02:47:14.705Z,100496.22
2022-11-30T02:49:54.090Z,100503.38
2022-11-30T02:52:24.790Z,100499.81
2022-11-30T02:54:54.153Z,100492.41
2022-11-30T02:57:22.595Z,100487.34
2022-11-30T02:59:50.268Z,100490.97
2022-11-30T03:02:19.294Z,100489.81
2022-11-30T03:04:47.369Z,100487.41
2022-11-30T03:07:15.148Z,100491.34
2022-11-30T03:09:42.884Z,100492.03
2022-11-30T03:12:10.317Z,100490.41
2022-11-30T03:14:38.152Z,100487.63
2022-11-30T03:17:07.118Z,100489.78
2022-11-30T03:19:35.159Z,100492.03
2022-11-30T03:22:02.974Z,100497.66
2022-11-30T03:24:30.855Z,100491.91
2022-11-30T03:26:58.485Z,100506.31
2022-11-30T03:29:26.038Z,100507.06
2022-11-30T03:31:53.884Z,100497.47
2022-11-30T03:34:21.279Z,100495.38
2022-11-30T03:36:48.815Z,100502.59
2022-11-30T03:39:16.642Z,100504.87
2022-11-30T03:41:44.229Z,100505.09
2022-11-30T03:44:12.822Z,100506.69
2022-11-30T03:46:40.890Z,100503.25
2022-11-30T03:49:09.027Z,100504.09
2022-11-30T03:51:36.611Z,100501.50
2022-11-30T03:54:04.480Z,100502.53
2022-11-30T03:56:33.195Z,100503.19
2022-11-30T03:59:00.566Z,100508.00
2022-11-30T04:01:28.503Z,100503.47
2022-11-30T04:03:56.615Z,100504.00
2022-11-30T04:06:25.312Z,100504.09
2022-11-30T04:08:54.939Z,100506.97
2022-11-30T04:11:22.626Z,100497.94
2022-11-30T04:13:50.316Z,100499.13
2022-11-30T04:16:17.880Z,100498.31
2022-11-30T04:18:45.783Z,100498.31
2022-11-30T04:21:13.286Z,100498.22
2022-11-30T04:23:40.934Z,100496.66
2022-11-30T04:26:11.753Z,100497.38
2022-11-30T04:28:39.168Z,100499.44
2022-11-30T04:31:06.992Z,100494.19
2022-11-30T04:33:34.803Z,100497.66
2022-11-30T04:36:04.655Z,100495.69
2022-11-30T04:38:32.997Z,100503.19
2022-11-30T04:41:06.839Z,100509.44
2022-11-30T04:43:34.603Z,100502.22
2022-11-30T04:46:02.602Z,100502.16
2022-11-30T04:48:30.391Z,100499.81
2022-11-30T04:51:06.155Z,100505.25
2022-11-30T04:53:35.052Z,100503.91
2022-11-30T04:56:10.222Z,100505.03
2022-11-30T04:58:39.129Z,100504.87
2022-11-30T05:01:07.620Z,100502.78
2022-11-30T05:03:35.339Z,100502.06
2022-11-30T05:06:04.016Z,100506.00
2022-11-30T05:08:31.955Z,100508.03
2022-11-30T05:10:59.675Z,100508.03
2022-11-30T05:13:27.409Z,100507.84
2022-11-30T05:15:55.040Z,100510.50
2022-11-30T05:18:23.159Z,100509.50
2022-11-30T05:20:52.264Z,100512.91
2022-11-30T05:23:20.415Z,100514.19
2022-11-30T05:25:48.615Z,100513.84
2022-11-30T05:28:16.473Z,100508.59
2022-11-30T05:30:45.251Z,100514.75
2022-11-30T05:33:12.954Z,100518.94
2022-11-30T05:35:40.908Z,100518.47
2022-11-30T05:38:08.511Z,100517.28
2022-11-30T05:40:36.389Z,100514.81
2022-11-30T05:43:05.258Z,100517.12
2022-11-30T05:45:32.755Z,100510.06
2022-11-30T05:48:00.326Z,100519.03
2022-11-30T05:50:28.219Z,100513.44
2022-11-30T05:53:00.879Z,100516.84
2022-11-30T05:55:29.560Z,100513.72
2022-11-30T05:57:57.280Z,100522.09
2022-11-30T06:00:24.811Z,100526.25
2022-11-30T06:02:57.688Z,100517.81
2022-11-30T06:05:26.759Z,100516.91
2022-11-30T06:07:54.940Z,100522.91
2022-11-30T06:10:22.550Z,100526.88
2022-11-30T06:12:50.024Z,100528.50
2022-11-30T06:15:17.884Z,100533.09
2022-11-30T06:17:45.487Z,100534.81
2022-11-30T06:20:13.770Z,100542.22
2022-11-30T06:22:45.066Z,100536.78
2022-11-30T06:25:15.018Z,100542.63
2022-11-30T06:27:43.755Z,100538.00
2022-11-30T06:30:12.070Z,100546.22
2022-11-30T06:32:39.619Z,100545.81
2022-11-30T06:35:07.787Z,100545.31
2022-11-30T06:37:35.873Z,100550.47
2022-11-30T06:40:07.075Z,100554.88
2022-11-30T06:42:36.143Z,100557.66
2022-11-30T06:45:05.180Z,100548.84
2022-11-30T06:47:33.085Z,100559.47
2022-11-30T06:50:00.959Z,100562.91
2022-11-30T06:52:31.538Z,100556.75
2022-11-30T06:54:59.170Z,100551.19
2022-11-30T06:57:28.348Z,100555.78
2022-11-30T06:59:56.622Z,100567.59
2022-11-30T07:02:24.697Z,100550.22
2022-11-30T07:04:52.629Z,100552.72
2022-11-30T07:07:20.407Z,100553.47
2022-11-30T07:09:48.049Z,100555.28
2022-11-30T07:12:15.905Z,100556.78
2022-11-30T07:14:43.594Z,100550.56
2022-11-30T07:17:11.110Z,100553.09
2022-11-30T07:19:39.061Z,100549.25
2022-11-30T07:22:06.707Z,100552.50
2022-11-30T07:24:52.887Z,100551.88
2022-11-30T07:27:20.811Z,100555.66
2022-11-30T07:29:49.037Z,100554.81
2022-11-30T07:32:17.260Z,100561.44
2022-11-30T07:34:45.310Z,100550.84
2022-11-30T07:37:13.027Z,100554.34
2022-11-30T07:39:40.687Z,100555.72
2022-11-30T07:42:08.811Z,100550.84
2022-11-30T07:44:36.375Z,100558.66
2022-11-30T07:47:04.020Z,100555.69
2022-11-30T07:49:32.053Z,100544.44
2022-11-30T07:51:59.648Z,100556.78
2022-11-30T07:54:27.787Z,100551.38
2022-11-30T07:56:55.733Z,100554.31
2022-11-30T07:59:23.339Z,100552.03
2022-11-30T08:01:51.267Z,100559.66
2022-11-30T08:04:19.498Z,100555.03
2022-11-30T08:06:47.190Z,100554.38
2022-11-30T08:09:20.342Z,100557.12
2022-11-30T08:11:49.183Z,100554.38
2022-11-30T08:14:16.825Z,100561.19
2022-11-30T08:16:44.629Z,100554.31
2022-11-30T08:19:12.717Z,100552.81
2022-11-30T08:21:40.417Z,100553.62
2022-11-30T08:24:11.990Z,100555.91
2022-11-30T08:26:39.814Z,100549.97
2022-11-30T08:29:10.709Z,100534.56
2022-11-30T08:31:38.312Z,100546.84
2022-11-30T08:34:13.600Z,100531.13
2022-11-30T08:36:41.408Z,100542.50
2022-11-30T08:39:12.363Z,100533.97
2022-11-30T08:41:40.073Z,100532.75
2022-11-30T08:44:07.617Z,100529.56
2022-11-30T08:49:24.472Z,100525.09
2022-11-30T08:54:45.856Z,100528.97
2022-11-30T08:57:15.731Z,100534.72
2022-11-30T08:59:43.723Z,100530.00
2022-11-30T09:02:12.445Z,100529.91
2022-11-30T09:04:40.461Z,100538.22
2022-11-30T09:07:09.704Z,100539.50
2022-11-30T09:09:37.854Z,100532.09
2022-11-30T09:12:06.980Z,100542.16
2022-11-30T09:14:34.612Z,100538.66
2022-11-30T09:17:02.837Z,100545.31
2022-11-30T09:19:30.725Z,100538.34
2022-11-30T09:21:58.262Z,100544.91
2022-11-30T09:24:25.825Z,100548.81
2022-11-30T09:26:56.563Z,100548.97
2022-11-30T09:29:24.106Z,100539.34
2022-11-30T09:31:51.480Z,100537.50
2022-11-30T09:34:19.321Z,100546.13
2022-11-30T09:36:46.817Z,100541.59
2022-11-30T09:39:14.402Z,100544.53
2022-11-30T09:41:55.106Z,100553.56
2022-11-30T09:44:32.573Z,100537.72
2022-11-30T09:47:33.077Z,100539.34
2022-11-30T09:50:12.637Z,100533.09
2022-11-30T09:52:44.177Z,100522.84
2022-11-30T09:55:15.357Z,100533.75
2022-11-30T09:57:47.060Z,100529.69
2022-11-30T10:00:17.135Z,100524.75
2022-11-30T10:02:45.612Z,100520.97
2022-11-30T10:05:29.146Z,100528.94
2022-11-30T10:08:23.625Z,100526.94
2022-11-30T10:11:09.922Z,100522.53
2022-11-30T10:13:40.743Z,100530.38
2022-11-30T10:16:29.921Z,100520.56
2022-11-30T10:19:05.879Z,100511.37
2022-11-30T10:22:08.980Z,100513.66
2022-11-30T10:25:14.769Z,100502.66
2022-11-30T10:27:51.038Z,100512.28
2022-11-30T10:30:24.652Z,100500.41
2022-11-30T10:32:57.592Z,100498.47
2022-11-30T10:35:31.466Z,100490.03
2022-11-30T10:38:00.448Z,100490.22
2022-11-30T10:40:38.930Z,100499.00
2022-11-30T10:43:09.184Z,100505.06
2022-11-30T10:45:42.815Z,100495.94
2022-11-30T10:48:37.852Z,100496.50
2022-11-30T10:51:06.877Z,100493.75
2022-11-30T10:53:34.596Z,100505.59
2022-11-30T10:56:07.660Z,100495.34
2022-11-30T10:58:41.473Z,100498.31
2022-11-30T11:01:11.239Z,100485.38
2022-11-30T11:03:39.159Z,100491.81
2022-11-30T11:06:23.731Z,100491.34
2022-11-30T11:08:51.719Z,100492.47
2022-11-30T11:11:27.635Z,100492.25
2022-11-30T11:14:29.134Z,100494.28
2022-11-30T11:17:04.871Z,100495.00
2022-11-30T11:19:38.945Z,100489.56
2022-11-30T11:22:16.298Z,100486.81
2022-11-30T11:24:45.089Z,100488.78
2022-11-30T11:27:31.595Z,100484.66
2022-11-30T11:30:27.432Z,100491.25
2022-11-30T11:33:20.519Z,100499.31
2022-11-30T11:35:53.577Z,100498.84
2022-11-30T11:38:40.941Z,100490.28
2022-11-30T11:41:33.861Z,100486.97
2022-11-30T11:44:25.884Z,100490.41
2022-11-30T11:46:56.602Z,100490.19
2022-11-30T11:49:29.396Z,100498.16
2022-11-30T11:52:02.383Z,100496.12
2022-11-30T11:54:57.409Z,100490.06
2022-11-30T11:57:46.842Z,100491.56
2022-11-30T12:00:16.414Z,100478.00
2022-11-30T12:02:59.881Z,100474.28
2022-11-30T12:05:31.254Z,100474.06
2022-11-30T12:08:19.249Z,100463.25
2022-11-30T12:11:02.908Z,100462.19
2022-11-30T12:13:42.189Z,100471.28
2022-11-30T12:16:15.651Z,100472.06
2022-11-30T12:19:02.330Z,100473.28
2022-11-30T12:21:45.007Z,100467.91
2022-11-30T12:24:40.293Z,100470.63
2022-11-30T12:27:26.641Z,100458.44
2022-11-30T12:30:25.455Z,100458.47
2022-11-30T12:33:51.573Z,100447.66
2022-11-30T12:36:41.421Z,100456.91
2022-11-30T12:39:30.613Z,100459.00
2022-11-30T12:42:08.268Z,100460.37
2022-11-30T12:45:06.016Z,100457.91
2022-11-30T12:47:49.968Z,100457.44
2022-11-30T12:51:02.841Z,100456.97
2022-11-30T12:53:40.628Z,100450.53
2022-11-30T12:56:52.734Z,100454.88
2022-11-30T12:59:46.033Z,100448.88
2022-11-30T13:02:31.164Z,100450.66
2022-11-30T13:05:10.604Z,100453.28
2022-11-30T13:07:43.193Z,100451.19
2022-11-30T13:10:30.380Z,100452.50
2022-11-30T13:12:59.323Z,100445.03
2022-11-30T13:15:33.582Z,100447.91
2022-11-30T13:18:02.032Z,100450.50
2022-11-30T13:20:48.418Z,100449.81
2022-11-30T13:23:36.233Z,100453.16
2022-11-30T13:26:29.318Z,100449.53
2022-11-30T13:29:18.640Z,100451.69
2022-11-30T13:31:55.484Z,100460.22
2022-11-30T13:34:30.775Z,100462.91
2022-11-30T13:37:07.607Z,100460.84
2022-11-30T13:39:46.777Z,100461.25
2022-11-30T13:42:34.219Z,100459.44
2022-11-30T13:45:26.460Z,100467.41
2022-11-30T13:47:57.571Z,100465.94
2022-11-30T13:50:37.406Z,100467.28
2022-11-30T13:53:21.037Z,100468.19
2022-11-30T13:55:48.328Z,100467.78
2022-11-30T13:58:18.366Z,100469.06
2022-11-30T14:01:20.436Z,100473.03
2022-11-30T14:04:19.491Z,100475.13
2022-11-30T14:06:50.342Z,100466.88
2022-11-30T14:09:38.365Z,100474.13
2022-11-30T14:12:31.527Z,100473.28
2022-11-30T14:15:03.552Z,100469.09
2022-11-30T14:17:34.122Z,100471.97
2022-11-30T14:20:15.568Z,100472.84
2022-11-30T14:22:43.645Z,100472.44
2022-11-30T14:25:14.004Z,100469.84
2022-11-30T14:27:42.852Z,100468.75
2022-11-30T14:30:19.536Z,100469.16
2022-11-30T14:33:01.570Z,100464.37
2022-11-30T14:35:31.292Z,100469.28
2022-11-30T14:38:01.020Z,100463.84
2022-11-30T14:40:33.618Z,100464.94
2022-11-30T14:43:02.772Z,100475.66
2022-11-30T14:45:32.750Z,100470.25
2022-11-30T14:48:27.296Z,100469.72
2022-11-30T14:50:57.078Z,100461.75
2022-11-30T14:53:39.608Z,100462.47
2022-11-30T14:56:32.860Z,100458.69
2022-11-30T14:59:16.424Z,100462.31
2022-11-30T15:01:44.776Z,100454.25
2022-11-30T15:04:15.635Z,100464.22
2022-11-30T15:06:43.536Z,100459.38
2022-11-30T15:09:17.212Z,100458.25
2022-11-30T15:11:47.486Z,100455.84
2022-11-30T15:14:15.268Z,100462.84
2022-11-30T15:17:01.311Z,100471.41
2022-11-30T15:19:32.814Z,100478.13
2022-11-30T15:22:00.571Z,100465.78
2022-11-30T15:24:29.920Z,100474.37
2022-11-30T15:26:59.442Z,100469.78
2022-11-30T15:29:30.330Z,100471.44
2022-11-30T15:31:59.665Z,100463.41
2022-11-30T15:34:34.436Z,100466.56
2022-11-30T15:37:02.632Z,100463.47
2022-11-30T15:39:30.566Z,100468.38
2022-11-30T15:42:00.157Z,100468.63
2022-11-30T15:44:57.080Z,100471.97
2022-11-30T15:47:37.405Z,100459.16
2022-11-30T15:50:30.622Z,100459.44
2022-11-30T15:53:18.252Z,100458.19
2022-11-30T15:55:48.156Z,100463.63
2022-11-30T15:58:34.887Z,100471.22
2022-11-30T16:01:06.332Z,100467.28
2022-11-30T16:03:46.888Z,100467.09
2022-11-30T16:06:18.086Z,100464.47
2022-11-30T16:08:47.073Z,100470.38
2022-11-30T16:11:14.977Z,100470.97
2022-11-30T16:13:42.632Z,100455.47
2022-11-30T16:16:17.040Z,100454.81
2022-11-30T16:18:44.734Z,100452.12
2022-11-30T16:21:13.553Z,100456.75
2022-11-30T16:23:41.141Z,100451.22
2022-11-30T16:29:06.828Z,100449.97
2022-11-30T16:31:35.210Z,100445.03
2022-11-30T16:34:02.918Z,100449.44
2022-11-30T16:36:30.952Z,100456.75
2022-11-30T16:38:58.823Z,100460.09
2022-11-30T16:41:27.606Z,100463.81
2022-11-30T16:43:56.555Z,100459.97
2022-11-30T16:46:26.436Z,100459.09
2022-11-30T16:48:55.647Z,100464.22
2022-11-30T16:51:28.986Z,100453.81
2022-11-30T16:53:58.662Z,100453.28
2022-11-30T16:56:28.413Z,100460.97
2022-11-30T16:58:55.977Z,100465.22
2022-11-30T17:01:35.732Z,100467.16
2022-11-30T17:04:20.033Z,100470.44
2022-11-30T17:06:50.580Z,100473.03
2022-11-30T17:09:20.466Z,100473.06
2022-11-30T17:11:50.851Z,100466.91
2022-11-30T17:14:22.144Z,100468.75
2022-11-30T17:16:50.556Z,100465.84
2022-11-30T17:19:18.523Z,100468.03
2022-11-30T17:21:46.023Z,100460.91
2022-11-30T17:24:14.162Z,100456.16
2022-11-30T17:26:41.728Z,100464.97
2022-11-30T17:29:09.296Z,100464.37
2022-11-30T17:31:37.225Z,100470.19
2022-11-30T17:34:05.857Z,100472.00
2022-11-30T17:36:33.429Z,100463.38
2022-11-30T17:39:08.426Z,100472.09
2022-11-30T17:41:36.304Z,100479.19
2022-11-30T17:44:04.239Z,100482.13
2022-11-30T17:46:32.024Z,100481.16
2022-11-30T17:48:59.663Z,100488.09
2022-11-30T17:51:28.065Z,100486.62
2022-11-30T17:53:55.731Z,100484.31
2022-11-30T17:56:23.917Z,100487.97
2022-11-30T17:58:51.700Z,100490.66
2022-11-30T18:01:21.725Z,100488.41
2022-11-30T18:03:50.093Z,100492.81
2022-11-30T18:06:18.541Z,100491.94
2022-11-30T18:08:46.637Z,100490.91
2022-11-30T18:11:20.476Z,100492.06
2022-11-30T18:13:53.662Z,100495.78
2022-11-30T18:16:26.768Z,100488.94
2022-11-30T18:18:57.252Z,100485.94
2022-11-30T18:21:27.338Z,100486.75
2022-11-30T18:23:54.978Z,100485.50
2022-11-30T18:26:24.869Z,100492.47
2022-11-30T18:28:54.177Z,100491.56
2022-11-30T18:31:22.522Z,100488.06
2022-11-30T18:33:55.883Z,100498.37
2022-11-30T18:36:24.170Z,100493.16
2022-11-30T18:38:51.687Z,100491.31
2022-11-30T18:41:19.400Z,100501.00
2022-11-30T18:43:47.379Z,100503.56
2022-11-30T18:46:14.854Z,100497.78
2022-11-30T18:48:42.805Z,100499.47
2022-11-30T18:51:18.967Z,100502.50
2022-11-30T18:53:46.632Z,100501.56
2022-11-30T18:56:19.357Z,100493.34
2022-11-30T18:58:47.873Z,100500.72
2022-11-30T19:01:20.012Z,100499.22
2022-11-30T19:03:55.888Z,100496.69
2022-11-30T19:06:32.344Z,100502.06
2022-11-30T19:09:02.915Z,100506.22
2022-11-30T19:11:33.762Z,100504.44
2022-11-30T19:14:02.004Z,100502.59
2022-11-30T19:16:33.389Z,100501.84
2022-11-30T19:19:04.981Z,100504.28
2022-11-30T19:21:33.619Z,100508.19
2022-11-30T19:24:01.589Z,100507.22
2022-11-30T19:26:32.286Z,100514.72
2022-11-30T19:29:00.443Z,100506.09
2022-11-30T19:31:28.322Z,100506.16
2022-11-30T19:33:56.329Z,100510.50
2022-11-30T19:36:26.160Z,100515.03
2022-11-30T19:38:55.118Z,100511.59
2022-11-30T19:41:22.777Z,100507.87
2022-11-30T19:44:12.891Z,100515.19
2022-11-30T19:46:41.632Z,100522.97
2022-11-30T19:49:10.117Z,100521.34
2022-11-30T19:51:37.738Z,100519.31
2022-11-30T19:54:05.511Z,100510.63
2022-11-30T19:56:34.681Z,100515.25
2022-11-30T19:59:05.421Z,100514.25
2022-11-30T20:01:34.213Z,100517.66
2022-11-30T20:04:02.785Z,100512.00
2022-11-30T20:06:36.602Z,100512.50
2022-11-30T20:09:05.903Z,100509.97
2022-11-30T20:11:33.405Z,100505.34
2022-11-30T20:14:01.031Z,100501.09
2022-11-30T20:16:29.152Z,100504.59
2022-11-30T20:19:04.514Z,100504.50
2022-11-30T20:21:35.107Z,100506.38
2022-11-30T20:24:08.221Z,100512.03
2022-11-30T20:26:39.745Z,100506.78
2022-11-30T20:29:12.663Z,100500.53
2022-11-30T20:31:41.357Z,100507.63
2022-11-30T20:34:12.607Z,100512.22
2022-11-30T20:36:40.421Z,100511.94
2022-11-30T20:39:08.280Z,100502.28
2022-11-30T20:41:35.880Z,100501.41
2022-11-30T20:44:04.185Z,100512.38
2022-11-30T20:46:34.517Z,100509.00
2022-11-30T20:49:04.725Z,100502.53
2022-11-30T20:51:34.976Z,100504.72
2022-11-30T20:54:06.695Z,100506.97
2022-11-30T20:56:36.643Z,100513.56
2022-11-30T20:59:06.319Z,100506.47
2022-11-30T21:01:34.463Z,100503.59
2022-11-30T21:04:02.405Z,100506.31
2022-11-30T21:06:30.512Z,100502.66
2022-11-30T21:08:58.676Z,100503.69
2022-11-30T21:11:27.899Z,100507.38
2022-11-30T21:13:55.856Z,100507.87
2022-11-30T21:16:28.096Z,100508.34
2022-11-30T21:19:00.311Z,100516.38
2022-11-30T21:21:30.804Z,100518.00
2022-11-30T21:24:00.731Z,100518.06
2022-11-30T21:26:33.541Z,100531.09
2022-11-30T21:29:03.717Z,100524.34
2022-11-30T21:31:31.805Z,100530.50
2022-11-30T21:33:59.947Z,100534.69
2022-11-30T21:36:27.940Z,100537.50
2022-11-30T21:39:04.458Z,100543.84
2022-11-30T21:41:38.355Z,100547.50
2022-11-30T21:44:07.779Z,100556.00
2022-11-30T21:46:35.756Z,100557.59
2022-11-30T21:49:04.029Z,100560.06
2022-11-30T21:51:31.999Z,100562.47
2022-11-30T21:54:02.111Z,100563.00
2022-11-30T21:56:36.430Z,100563.41
2022-11-30T21:59:05.857Z,100573.44
2022-11-30T22:01:39.474Z,100573.13
2022-11-30T22:04:09.388Z,100566.47
2022-11-30T22:06:38.495Z,100573.22
2022-11-30T22:09:16.323Z,100564.22
2022-11-30T22:11:45.269Z,100562.56
2022-11-30T22:14:15.854Z,100577.81
2022-11-30T22:16:43.815Z,100570.25
2022-11-30T22:19:11.468Z,100567.66
2022-11-30T22:21:39.064Z,100558.75
2022-11-30T22:24:12.055Z,100558.72
2022-11-30T22:26:41.756Z,100553.84
2022-11-30T22:29:15.498Z,100560.09
2022-11-30T22:31:45.400Z,100556.78
2022-11-30T22:34:14.116Z,100551.28
2022-11-30T22:36:43.283Z,100548.41
2022-11-30T22:39:16.619Z,100551.66
2022-11-30T22:41:45.691Z,100548.41
2022-11-30T22:44:17.447Z,100545.66
2022-11-30T22:46:45.808Z,100543.66
2022-11-30T22:49:20.641Z,100541.19
2022-11-30T22:51:50.327Z,100534.09
2022-11-30T22:54:18.510Z,100536.19
2022-11-30T22:56:46.671Z,100527.78
2022-11-30T22:59:15.077Z,100529.91
2022-11-30T23:01:45.618Z,100536.03
2022-11-30T23:04:15.779Z,100530.72
2022-11-30T23:06:44.282Z,100521.09
2022-11-30T23:09:17.073Z,100521.50
2022-11-30T23:11:45.059Z,100512.28
2022-11-30T23:14:12.507Z,100510.25
2022-11-30T23:16:40.605Z,100503.66
2022-11-30T23:19:08.549Z,100516.47
2022-11-30T23:21:41.369Z,100520.06
2022-11-30T23:24:14.465Z,100526.00
2022-11-30T23:26:43.118Z,100529.69
2022-11-30T23:29:13.031Z,100530.59
2022-11-30T23:31:41.945Z,100524.53
2022-11-30T23:34:12.358Z,100521.78
2022-11-30T23:36:40.214Z,100527.91
2022-11-30T23:39:10.547Z,100527.53
2022-11-30T23:41:38.269Z,100538.91
2022-11-30T23:44:07.224Z,100536.34
2022-11-30T23:46:35.331Z,100536.50
2022-11-30T23:49:03.054Z,100535.31
2022-11-30T23:51:30.819Z,100540.31
2022-11-30T23:53:58.246Z,100544.56
2022-11-30T23:56:25.790Z,100537.53
2022-11-30T23:58:53.764Z,100539.75
